createdAt,value
2023-03-06T00:01:29.814Z,19.20
2023-03-06T00:03:56.295Z,19.22
2023-03-06T00:06:22.770Z,19.25
2023-03-06T00:08:49.207Z,19.21
2023-03-06T00:11:15.693Z,19.17
2023-03-06T00:13:42.148Z,19.16
2023-03-06T00:16:08.828Z,19.13
2023-03-06T00:18:35.349Z,19.18
2023-03-06T00:21:01.814Z,19.21
2023-03-06T00:23:28.276Z,19.16
2023-03-06T00:25:54.730Z,19.16
2023-03-06T00:28:21.174Z,19.20
2023-03-06T00:30:47.623Z,19.18
2023-03-06T00:33:14.083Z,19.10
2023-03-06T00:35:40.664Z,19.05
2023-03-06T00:38:07.167Z,19.17
2023-03-06T00:40:33.620Z,19.20
2023-03-06T00:43:00.065Z,19.26
2023-03-06T00:45:26.595Z,19.20
2023-03-06T00:47:53.058Z,19.13
2023-03-06T00:50:19.514Z,19.11
2023-03-06T00:52:45.978Z,19.11
2023-03-06T00:55:12.488Z,19.11
2023-03-06T00:57:38.948Z,19.11
2023-03-06T01:00:05.402Z,19.14
2023-03-06T05:06:20.793Z,18.77
2023-03-06T05:08:47.252Z,18.82
2023-03-06T05:11:13.683Z,19.00
2023-03-06T05:13:40.135Z,18.92
2023-03-06T05:16:06.629Z,18.89
2023-03-06T05:18:33.119Z,19.01
2023-03-06T05:20:59.557Z,18.95
2023-03-06T05:23:25.999Z,18.92
2023-03-06T05:25:52.463Z,18.97
2023-03-06T05:28:18.890Z,18.87
2023-03-06T05:30:45.338Z,18.93
2023-03-06T05:33:11.789Z,18.96
2023-03-06T05:35:38.343Z,18.91
2023-03-06T05:38:04.812Z,18.82
2023-03-06T05:40:31.257Z,18.88
2023-03-06T05:42:57.714Z,18.92
2023-03-06T05:45:24.165Z,18.92
2023-03-06T05:47:50.603Z,18.91
2023-03-06T05:50:17.034Z,18.94
2023-03-06T05:52:43.485Z,18.92
2023-03-06T05:55:09.922Z,18.87
2023-03-06T05:57:36.371Z,18.92
2023-03-06T06:00:02.843Z,18.86
2023-03-06T06:02:29.336Z,18.90
2023-03-06T06:04:55.853Z,18.93
2023-03-06T06:07:22.314Z,18.84
2023-03-06T06:09:48.766Z,18.92
2023-03-06T06:12:15.214Z,18.86
2023-03-06T06:14:41.669Z,18.87
2023-03-06T06:17:08.123Z,18.88
2023-03-06T06:19:34.558Z,18.87
2023-03-06T06:22:01.046Z,18.83
2023-03-06T06:24:27.490Z,18.82
2023-03-06T06:26:53.940Z,18.85
2023-03-06T06:29:20.374Z,18.79
2023-03-06T06:31:46.837Z,18.87
2023-03-06T06:34:13.296Z,18.85
2023-03-06T06:36:39.772Z,18.95
2023-03-06T06:39:06.226Z,18.81
2023-03-06T06:41:51.039Z,18.87
2023-03-06T06:44:19.123Z,18.92
2023-03-06T06:49:32.037Z,18.89
2023-03-06T06:51:58.484Z,18.91
2023-03-06T06:54:24.990Z,18.90
2023-03-06T06:56:51.513Z,18.88
2023-03-06T06:59:17.963Z,18.88
2023-03-06T07:01:44.511Z,18.90
2023-03-06T07:04:11.073Z,18.90
2023-03-06T07:06:37.521Z,18.82
2023-03-06T07:09:03.960Z,18.81
2023-03-06T07:11:30.406Z,18.87
2023-03-06T07:13:56.830Z,18.81
2023-03-06T07:16:23.374Z,18.81
2023-03-06T07:18:49.942Z,18.93
2023-03-06T07:21:16.390Z,18.86
2023-03-06T07:23:42.842Z,18.92
2023-03-06T07:26:09.284Z,18.88
2023-03-06T07:28:51.281Z,18.90
2023-03-06T07:31:18.736Z,18.88
2023-03-06T07:33:45.205Z,18.94
2023-03-06T07:36:12.939Z,18.97
2023-03-06T07:38:40.355Z,18.91
2023-03-06T07:41:06.815Z,18.96
2023-03-06T07:43:33.278Z,19.06
2023-03-06T07:45:59.729Z,19.04
2023-03-06T07:48:26.190Z,19.04
2023-03-06T07:50:52.619Z,19.03
2023-03-06T07:53:19.075Z,19.08
2023-03-06T07:55:45.561Z,19.04
2023-03-06T07:58:12.020Z,18.97
2023-03-06T08:00:38.485Z,19.02
2023-03-06T08:03:04.988Z,19.04
2023-03-06T08:05:31.476Z,19.06
2023-03-06T08:07:57.912Z,19.03
2023-03-06T08:10:24.392Z,19.10
2023-03-06T08:12:50.838Z,19.11
2023-03-06T08:15:17.293Z,19.07
2023-03-06T08:17:43.742Z,19.07
2023-03-06T08:20:10.184Z,19.02
2023-03-06T08:22:36.625Z,19.11
2023-03-06T08:25:03.081Z,19.18
2023-03-06T08:27:29.551Z,19.09
2023-03-06T08:29:55.996Z,19.13
2023-03-06T08:32:22.509Z,19.23
2023-03-06T08:34:48.996Z,19.18
2023-03-06T08:37:15.509Z,19.29
2023-03-06T08:39:41.980Z,19.22
2023-03-06T08:42:08.418Z,19.19
2023-03-06T08:44:34.878Z,19.26
2023-03-06T08:47:01.314Z,19.35
2023-03-06T08:49:27.762Z,19.31
2023-03-06T08:51:54.339Z,19.34
2023-03-06T08:54:20.766Z,19.32
2023-03-06T08:56:47.215Z,19.26
2023-03-06T08:59:13.658Z,19.27
2023-03-06T09:01:40.143Z,19.29
2023-03-06T09:04:06.615Z,19.24
2023-03-06T09:06:33.066Z,19.22
2023-03-06T09:08:59.528Z,19.22
2023-03-06T09:11:26.228Z,19.20
2023-03-06T09:13:52.702Z,19.20
2023-03-06T09:16:19.187Z,19.24
2023-03-06T09:18:45.645Z,19.24
2023-03-06T09:21:12.079Z,19.35
2023-03-06T09:23:38.523Z,19.35
2023-03-06T09:26:04.961Z,19.40
2023-03-06T09:28:31.424Z,19.36
2023-03-06T09:30:57.934Z,19.42
2023-03-06T09:33:24.408Z,19.43
2023-03-06T09:35:50.975Z,19.38
2023-03-06T09:38:17.498Z,19.42
2023-03-06T09:40:43.969Z,19.49
2023-03-06T09:43:10.432Z,19.37
2023-03-06T09:45:36.890Z,19.42
2023-03-06T09:48:03.333Z,19.43
2023-03-06T09:50:29.806Z,19.50
2023-03-06T09:52:56.243Z,19.40
2023-03-06T09:55:22.694Z,19.37
2023-03-06T09:57:50.533Z,19.39
2023-03-06T10:00:17.698Z,19.38
2023-03-06T10:02:44.217Z,19.35
2023-03-06T10:05:10.911Z,19.37
2023-03-06T10:07:37.421Z,19.40
2023-03-06T10:10:03.870Z,19.40
2023-03-06T10:12:30.313Z,19.38
2023-03-06T10:14:56.767Z,19.35
2023-03-06T10:17:23.213Z,19.35
2023-03-06T10:19:49.693Z,19.38
2023-03-06T10:22:16.158Z,19.38
2023-03-06T10:24:42.637Z,19.38
2023-03-06T10:27:09.113Z,19.36
2023-03-06T10:29:35.578Z,19.45
2023-03-06T10:32:02.054Z,19.35
2023-03-06T10:34:28.523Z,19.41
2023-03-06T10:36:54.967Z,19.31
2023-03-06T10:39:21.401Z,19.29
2023-03-06T10:41:47.869Z,19.38
2023-03-06T10:44:14.346Z,19.35
2023-03-06T10:46:40.890Z,19.40
2023-03-06T10:49:07.349Z,19.42
2023-03-06T10:51:33.798Z,19.32
2023-03-06T10:54:00.279Z,19.36
2023-03-06T10:56:26.722Z,19.34
2023-03-06T10:58:53.156Z,19.43
2023-03-06T11:01:19.660Z,19.47
2023-03-06T11:03:46.120Z,19.55
2023-03-06T11:06:13.275Z,19.26
2023-03-06T11:08:39.832Z,19.37
2023-03-06T11:11:06.293Z,19.31
2023-03-06T11:13:32.758Z,19.33
2023-03-06T11:15:59.279Z,19.30
2023-03-06T11:18:25.745Z,19.34
2023-03-06T11:20:53.201Z,19.29
2023-03-06T11:23:19.744Z,19.27
2023-03-06T11:25:46.180Z,19.28
2023-03-06T11:28:12.624Z,19.21
2023-03-06T11:30:39.076Z,19.29
2023-03-06T11:33:05.530Z,19.26
2023-03-06T11:35:31.998Z,19.22
2023-03-06T11:37:58.476Z,19.28
2023-03-06T11:40:24.923Z,19.22
2023-03-06T11:42:51.365Z,19.18
2023-03-06T11:45:17.845Z,19.21
2023-03-06T11:47:44.299Z,19.27
2023-03-06T11:50:10.754Z,19.23
2023-03-06T11:52:37.209Z,19.22
2023-03-06T11:55:03.654Z,19.20
2023-03-06T11:57:30.101Z,19.16
2023-03-06T11:59:56.543Z,19.24
2023-03-06T12:02:23.099Z,19.27
2023-03-06T12:04:49.589Z,19.27
2023-03-06T12:07:16.062Z,19.52
2023-03-06T12:09:42.542Z,19.22
2023-03-06T12:12:08.985Z,19.29
2023-03-06T12:14:35.419Z,19.25
2023-03-06T12:17:01.848Z,19.20
2023-03-06T12:19:28.305Z,19.20
2023-03-06T12:21:54.763Z,19.16
2023-03-06T12:24:21.272Z,19.16
2023-03-06T12:26:47.724Z,19.19
2023-03-06T12:29:14.171Z,19.18
2023-03-06T12:31:40.708Z,19.21
2023-03-06T12:34:07.230Z,19.23
2023-03-06T12:36:33.676Z,19.17
2023-03-06T12:39:00.143Z,19.17
2023-03-06T12:41:26.587Z,19.24
2023-03-06T12:43:53.043Z,19.24
2023-03-06T12:46:19.521Z,19.26
2023-03-06T12:48:46.038Z,19.24
2023-03-06T12:51:12.506Z,19.22
2023-03-06T12:53:38.958Z,19.27
2023-03-06T12:56:05.416Z,19.16
2023-03-06T12:58:31.871Z,19.18
2023-03-06T13:01:03.716Z,19.14
2023-03-06T13:03:30.544Z,19.24
2023-03-06T13:05:57.013Z,19.24
2023-03-06T13:08:23.483Z,19.25
2023-03-06T13:10:49.927Z,19.21
2023-03-06T13:13:16.370Z,19.23
2023-03-06T13:15:42.803Z,19.16
2023-03-06T13:18:09.242Z,19.23
2023-03-06T13:20:35.679Z,19.20
2023-03-06T13:23:02.133Z,19.22
2023-03-06T13:25:28.601Z,19.18
2023-03-06T13:27:55.067Z,19.19
2023-03-06T13:30:21.563Z,19.15
2023-03-06T13:32:47.991Z,19.23
2023-03-06T13:35:14.422Z,19.22
2023-03-06T13:37:40.853Z,19.19
2023-03-06T13:40:07.295Z,19.16
2023-03-06T13:42:33.738Z,19.16
2023-03-06T13:45:00.187Z,19.20
2023-03-06T13:47:26.651Z,19.17
2023-03-06T13:49:53.095Z,19.23
2023-03-06T13:52:19.573Z,19.26
2023-03-06T13:54:46.021Z,19.18
2023-03-06T13:57:12.469Z,19.25
2023-03-06T13:59:38.959Z,19.20
2023-03-06T14:02:05.431Z,19.15
2023-03-06T14:04:31.909Z,19.18
2023-03-06T14:06:58.398Z,19.17
2023-03-06T14:09:24.926Z,19.23
2023-03-06T14:11:51.386Z,19.18
2023-03-06T14:14:17.827Z,19.15
2023-03-06T14:16:50.280Z,19.20
2023-03-06T14:19:17.052Z,19.19
2023-03-06T14:21:43.526Z,19.16
2023-03-06T14:24:09.964Z,19.23
2023-03-06T14:26:36.430Z,19.16
2023-03-06T14:29:02.877Z,19.24
2023-03-06T14:31:29.394Z,19.23
2023-03-06T14:33:55.876Z,19.14
2023-03-06T14:36:22.337Z,19.19
2023-03-06T14:38:48.814Z,19.21
2023-03-06T14:41:15.279Z,19.18
2023-03-06T14:43:41.746Z,19.23
2023-03-06T14:46:08.205Z,19.18
2023-03-06T14:48:34.694Z,19.18
2023-03-06T14:51:01.155Z,19.27
2023-03-06T14:53:27.625Z,19.19
2023-03-06T14:55:54.094Z,19.19
2023-03-06T14:58:20.569Z,19.22
2023-03-06T15:00:47.032Z,19.17
2023-03-06T15:03:13.502Z,18.92
2023-03-06T15:05:39.940Z,19.34
2023-03-06T15:08:06.395Z,19.27
2023-03-06T15:10:32.862Z,19.15
2023-03-06T15:12:59.334Z,19.23
2023-03-06T15:15:25.785Z,19.11
2023-03-06T15:17:52.260Z,19.11
2023-03-06T15:20:18.710Z,19.11
2023-03-06T15:22:45.159Z,19.14
2023-03-06T15:25:11.629Z,19.16
2023-03-06T15:27:38.103Z,19.09
2023-03-06T15:30:04.581Z,19.12
2023-03-06T15:32:31.109Z,19.17
2023-03-06T15:34:57.663Z,19.15
2023-03-06T15:37:24.099Z,19.13
2023-03-06T15:39:50.565Z,19.16
2023-03-06T15:42:17.017Z,19.16
2023-03-06T15:44:43.469Z,19.16
2023-03-06T15:47:09.928Z,19.12
2023-03-06T15:49:36.389Z,19.14
2023-03-06T15:52:02.845Z,19.17
2023-03-06T15:54:30.812Z,19.14
2023-03-06T15:56:58.331Z,19.19
2023-03-06T15:59:24.794Z,19.17
2023-03-06T16:01:51.274Z,19.12
2023-03-06T16:04:17.794Z,19.13
2023-03-06T16:06:44.270Z,19.20
2023-03-06T16:09:10.737Z,19.18
2023-03-06T16:11:43.728Z,19.15
2023-03-06T16:14:10.606Z,19.13
2023-03-06T16:16:37.156Z,19.12
2023-03-06T16:19:04.146Z,19.15
2023-03-06T16:21:31.400Z,19.12
2023-03-06T16:23:57.851Z,19.19
2023-03-06T16:26:24.315Z,19.23
2023-03-06T16:28:50.759Z,19.20
2023-03-06T16:31:17.240Z,19.21
2023-03-06T16:33:43.715Z,19.12
2023-03-06T16:36:10.246Z,19.16
2023-03-06T16:38:36.705Z,19.14
2023-03-06T16:41:03.171Z,19.14
2023-03-06T16:43:29.636Z,19.13
2023-03-06T16:45:56.100Z,19.13
2023-03-06T16:48:22.574Z,19.16
2023-03-06T16:50:49.062Z,19.15
2023-03-06T16:53:15.519Z,19.16
2023-03-06T16:55:41.999Z,19.20
2023-03-06T16:58:08.466Z,19.18
2023-03-06T17:00:34.923Z,19.21
2023-03-06T17:03:01.393Z,19.18
2023-03-06T17:05:27.894Z,19.20
2023-03-06T17:07:54.352Z,19.20
2023-03-06T17:10:20.791Z,19.19
2023-03-06T17:12:47.262Z,19.24
2023-03-06T17:15:13.721Z,19.31
2023-03-06T17:17:40.163Z,19.28
2023-03-06T17:20:06.649Z,19.25
2023-03-06T17:22:33.088Z,19.20
2023-03-06T17:24:59.551Z,19.13
2023-03-06T17:27:26.038Z,19.13
2023-03-06T17:29:52.528Z,19.15
2023-03-06T17:32:19.205Z,19.17
2023-03-06T17:34:45.684Z,19.23
2023-03-06T17:37:12.150Z,19.16
2023-03-06T17:39:38.648Z,19.25
2023-03-06T17:42:05.118Z,19.16
2023-03-06T17:44:31.571Z,19.30
2023-03-06T17:46:58.043Z,19.19
2023-03-06T17:49:24.500Z,19.11
2023-03-06T17:51:50.953Z,19.11
2023-03-06T17:54:17.395Z,19.14
2023-03-06T17:56:43.870Z,19.10
2023-03-06T17:59:10.313Z,19.10
2023-03-06T18:01:36.768Z,19.07
2023-03-06T18:04:03.230Z,19.13
2023-03-06T18:06:29.711Z,19.18
2023-03-06T18:08:56.161Z,19.02
2023-03-06T18:11:22.648Z,19.01
2023-03-06T18:13:49.099Z,19.04
2023-03-06T18:16:15.625Z,19.09
2023-03-06T18:18:42.102Z,19.12
2023-03-06T18:21:08.553Z,19.11
2023-03-06T18:23:35.001Z,19.26
2023-03-06T18:26:01.463Z,19.13
2023-03-06T18:28:27.931Z,19.10
2023-03-06T18:30:54.402Z,19.07
2023-03-06T18:33:20.859Z,19.04
2023-03-06T18:35:47.374Z,19.08
2023-03-06T18:38:13.915Z,19.09
2023-03-06T18:40:40.361Z,19.05
2023-03-06T18:43:06.825Z,19.07
2023-03-06T18:45:33.291Z,19.06
2023-03-06T18:47:59.752Z,19.10
2023-03-06T18:50:26.221Z,18.96
2023-03-06T18:52:52.678Z,19.03
2023-03-06T18:55:19.135Z,19.05
2023-03-06T18:57:45.591Z,19.08
2023-03-06T19:00:12.035Z,19.14
2023-03-06T19:02:38.499Z,19.22
2023-03-06T19:05:04.966Z,19.33
2023-03-06T19:07:31.419Z,19.46
2023-03-06T19:09:57.854Z,19.27
2023-03-06T19:12:24.300Z,19.26
2023-03-06T19:14:50.742Z,19.22
2023-03-06T19:17:17.210Z,19.37
2023-03-06T19:19:43.659Z,19.10
2023-03-06T19:22:10.122Z,19.12
2023-03-06T19:24:36.605Z,19.17
2023-03-06T19:27:03.065Z,19.18
2023-03-06T19:29:29.546Z,19.16
2023-03-06T19:31:56.040Z,19.16
2023-03-06T19:34:22.515Z,19.15
2023-03-06T19:36:48.958Z,19.11
2023-03-06T19:39:15.389Z,19.18
2023-03-06T19:41:41.845Z,19.14
2023-03-06T19:44:08.291Z,19.12
2023-03-06T19:46:34.723Z,19.06
2023-03-06T19:49:01.224Z,19.10
2023-03-06T19:51:27.707Z,19.04
2023-03-06T19:53:54.158Z,19.04
2023-03-06T19:56:20.613Z,19.09
2023-03-06T19:58:47.051Z,19.11
2023-03-06T20:01:13.531Z,19.11
2023-03-06T20:03:40.005Z,19.11
2023-03-06T20:06:06.458Z,19.22
2023-03-06T20:08:32.909Z,19.16
2023-03-06T20:10:59.377Z,19.15
2023-03-06T20:13:25.834Z,19.07
2023-03-06T20:15:52.358Z,19.06
2023-03-06T20:18:18.829Z,19.05
2023-03-06T20:20:45.315Z,19.02
2023-03-06T20:23:11.754Z,18.99
2023-03-06T20:25:38.213Z,18.98
2023-03-06T20:28:04.659Z,19.04
2023-03-06T20:30:37.845Z,19.02
2023-03-06T20:33:04.933Z,19.11
2023-03-06T20:35:31.420Z,19.21
2023-03-06T20:37:57.905Z,19.13
2023-03-06T20:40:24.416Z,19.20
2023-03-06T20:42:50.910Z,19.13
2023-03-06T20:45:17.390Z,19.20
2023-03-06T20:47:43.831Z,19.11
2023-03-06T20:50:10.270Z,19.11
2023-03-06T20:52:36.741Z,19.15
2023-03-06T20:55:03.191Z,19.23
2023-03-06T20:57:29.640Z,19.18
2023-03-06T20:59:56.098Z,19.08
2023-03-06T21:02:22.553Z,19.08
2023-03-06T21:04:49.033Z,19.30
2023-03-06T21:07:15.513Z,19.05
2023-03-06T21:09:41.968Z,19.00
2023-03-06T21:12:08.419Z,19.00
2023-03-06T21:14:34.882Z,19.15
2023-03-06T21:17:01.325Z,19.06
2023-03-06T21:19:27.843Z,19.02
2023-03-06T21:21:54.289Z,19.09
2023-03-06T21:24:21.447Z,19.08
2023-03-06T21:26:47.939Z,19.16
2023-03-06T21:29:14.386Z,19.16
2023-03-06T21:31:40.882Z,19.30
2023-03-06T21:34:07.359Z,19.16
2023-03-06T21:36:33.805Z,19.22
2023-03-06T21:39:00.273Z,19.24
2023-03-06T21:41:26.713Z,19.05
2023-03-06T21:43:53.172Z,19.13
2023-03-06T21:46:19.657Z,19.13
2023-03-06T21:48:46.149Z,19.14
2023-03-06T21:51:12.604Z,19.06
2023-03-06T21:53:39.047Z,19.18
2023-03-06T21:56:05.534Z,19.18
2023-03-06T21:58:31.995Z,19.02
2023-03-06T22:00:58.545Z,18.96
2023-03-06T22:03:25.018Z,19.11
2023-03-06T22:05:51.458Z,19.00
2023-03-06T22:08:17.899Z,18.92
2023-03-06T22:10:44.341Z,19.07
2023-03-06T22:13:10.783Z,19.07
2023-03-06T22:15:37.230Z,18.98
2023-03-06T22:18:03.675Z,18.92
2023-03-06T22:20:30.170Z,19.02
2023-03-06T22:22:56.629Z,19.14
2023-03-06T22:25:23.059Z,19.09
2023-03-06T22:27:49.509Z,19.07
2023-03-06T22:30:15.970Z,19.17
2023-03-06T22:32:42.474Z,19.13
2023-03-06T22:35:08.962Z,19.07
2023-03-06T22:37:35.416Z,19.12
2023-03-06T22:40:01.870Z,19.03
2023-03-06T22:42:28.355Z,19.12
2023-03-06T22:44:54.811Z,19.12
2023-03-06T22:47:21.261Z,19.04
2023-03-06T22:49:47.709Z,19.14
2023-03-06T22:52:15.224Z,19.09
2023-03-06T22:54:41.799Z,19.18
2023-03-06T22:57:08.242Z,19.11
2023-03-06T22:59:34.696Z,19.04
2023-03-06T23:02:01.161Z,19.09
2023-03-06T23:04:27.605Z,19.10
2023-03-06T23:06:54.047Z,19.00
2023-03-06T23:09:20.507Z,19.08
2023-03-06T23:11:46.963Z,19.12
2023-03-06T23:14:13.460Z,19.11
2023-03-06T23:16:39.894Z,19.06
2023-03-06T23:19:06.340Z,19.06
2023-03-06T23:21:32.782Z,19.04
2023-03-06T23:23:59.230Z,19.12
2023-03-06T23:26:25.705Z,19.00
2023-03-06T23:28:52.342Z,19.08
2023-03-06T23:31:18.856Z,19.14
2023-03-06T23:33:45.331Z,19.05
2023-03-06T23:36:11.770Z,19.10
2023-03-06T23:38:38.234Z,19.00
2023-03-06T23:41:04.675Z,18.91
2023-03-06T23:43:31.131Z,19.03
2023-03-06T23:45:57.580Z,19.10
2023-03-06T23:48:24.046Z,19.09
2023-03-06T23:50:50.494Z,19.03
2023-03-06T23:53:16.987Z,19.06
2023-03-06T23:55:43.458Z,19.13
2023-03-06T23:58:09.912Z,19.13
